Time;durP1;ratioP1;P1;durP2;ratioP2;P2;SDS_P1;SDS_P2;PMS_P1;PMS_P2;Temp;Humidity;BMP_temperature;BMP_pressure;BME280_temperature;BME280_humidity;BME280_pressure;Samples;Min_cycle;Max_cycle;Signal;HPM_P1;HPM_P2
2021/05/31 00:00:21;;;;;;;6.03;3.30;;;12.50;62.00;;;;;;5007796;28;20064;-82
2021/05/31 00:03:05;;;;;;;6.45;3.67;;;12.50;62.40;;;;;;4996177;28;20104;-84
2021/05/31 00:05:49;;;;;;;5.60;3.58;;;12.50;62.70;;;;;;4998887;28;20037;-82
2021/05/31 00:08:33;;;;;;;5.05;3.47;;;12.50;62.50;;;;;;4994106;28;20143;-82
2021/05/31 00:11:19;;;;;;;5.95;3.60;;;12.50;62.70;;;;;;5011902;28;20104;-81
2021/05/31 00:14:05;;;;;;;8.18;3.78;;;12.50;63.00;;;;;;5009835;28;20076;-84
2021/05/31 00:16:49;;;;;;;5.47;3.80;;;12.40;63.30;;;;;;5000284;28;20072;-82
2021/05/31 00:19:34;;;;;;;5.40;3.10;;;12.30;63.70;;;;;;5016136;28;20044;-82
2021/05/31 00:22:20;;;;;;;6.95;3.58;;;12.30;64.20;;;;;;5012485;28;20477;-81
2021/05/31 00:25:06;;;;;;;5.13;3.20;;;12.30;64.10;;;;;;5029971;28;20109;-76
2021/05/31 00:27:50;;;;;;;5.47;3.40;;;12.30;64.50;;;;;;5022994;28;20040;-76
2021/05/31 00:30:34;;;;;;;7.15;3.58;;;12.20;64.70;;;;;;5032281;28;20085;-76
2021/05/31 00:33:18;;;;;;;8.55;3.33;;;12.20;64.90;;;;;;5015097;28;20509;-76
2021/05/31 00:36:03;;;;;;;5.65;3.40;;;12.20;65.10;;;;;;5003104;28;20061;-76
2021/05/31 00:38:47;;;;;;;9.48;4.25;;;12.10;65.60;;;;;;5023838;28;20087;-77
2021/05/31 00:41:31;;;;;;;6.13;3.40;;;12.10;65.90;;;;;;5012475;28;20122;-76
2021/05/31 00:44:15;;;;;;;5.57;3.45;;;12.10;65.90;;;;;;5030851;28;20389;-76
2021/05/31 00:46:59;;;;;;;6.18;3.30;;;12.10;66.90;;;;;;5014514;28;20041;-85
2021/05/31 00:49:43;;;;;;;5.57;3.28;;;12.00;66.90;;;;;;5013131;28;20406;-84
2021/05/31 00:52:27;;;;;;;4.57;2.83;;;11.90;67.50;;;;;;5016355;28;20555;-84
2021/05/31 00:55:13;;;;;;;6.00;3.08;;;11.90;67.30;;;;;;5012756;28;20096;-82
2021/05/31 00:57:57;;;;;;;5.93;3.10;;;11.90;67.70;;;;;;4996642;28;20101;-83
2021/05/31 01:00:43;;;;;;;6.60;2.85;;;11.80;67.90;;;;;;5001107;28;20044;-82
2021/05/31 01:03:28;;;;;;;5.32;2.78;;;11.80;68.10;;;;;;5004974;28;20057;-82
2021/05/31 01:05:56;;;;;;;5.43;3.35;;;11.70;68.60;;;;;;5003617;28;20030;-81
2021/05/31 01:08:57;;;;;;;5.28;3.05;;;11.70;68.70;;;;;;5004959;28;20117;-82
2021/05/31 01:12:02;;;;;;;6.10;2.63;;;11.80;68.70;;;;;;4992361;28;20510;-82
2021/05/31 01:15:01;;;;;;;5.38;2.90;;;11.70;69.00;;;;;;5009224;28;20105;-81
2021/05/31 01:17:59;;;;;;;5.35;3.10;;;11.70;69.50;;;;;;5015959;28;20053;-80
2021/05/31 01:21:23;;;;;;;4.68;2.85;;;11.70;69.80;;;;;;5014510;28;20029;-80
2021/05/31 01:24:22;;;;;;;4.88;2.80;;;11.60;70.20;;;;;;5025811;28;20060;-79
2021/05/31 01:27:31;;;;;;;5.80;2.85;;;11.60;70.60;;;;;;5008587;28;20088;-80
2021/05/31 01:30:20;;;;;;;5.97;3.10;;;11.50;70.70;;;;;;5014763;28;20037;-80
2021/05/31 01:33:06;;;;;;;10.27;3.35;;;11.50;71.10;;;;;;5014017;28;20041;-80
2021/05/31 01:35:52;;;;;;;6.93;3.67;;;11.50;71.10;;;;;;5013694;28;20099;-81
2021/05/31 01:38:38;;;;;;;7.28;4.25;;;11.40;71.40;;;;;;5019812;28;20099;-80
2021/05/31 01:41:24;;;;;;;6.28;3.30;;;11.40;72.30;;;;;;5020191;28;20037;-80
2021/05/31 01:44:08;;;;;;;4.85;2.90;;;11.40;72.00;;;;;;5014476;28;20092;-82
2021/05/31 01:46:52;;;;;;;7.32;3.58;;;11.40;72.00;;;;;;5012143;28;20045;-80
2021/05/31 01:49:38;;;;;;;8.65;3.65;;;11.40;72.20;;;;;;5026179;28;20078;-80
2021/05/31 01:52:23;;;;;;;6.43;3.33;;;11.30;72.20;;;;;;5020056;28;20044;-79
2021/05/31 01:55:09;;;;;;;6.20;3.05;;;11.30;72.80;;;;;;5025563;28;20073;-79
2021/05/31 01:57:54;;;;;;;7.57;3.67;;;11.20;73.10;;;;;;5014580;28;20041;-80
2021/05/31 02:00:38;;;;;;;5.57;3.28;;;11.20;73.10;;;;;;5003717;28;20801;-80
2021/05/31 02:03:03;;;;;;;4.88;3.28;;;11.20;73.20;;;;;;5012846;28;20045;-80
2021/05/31 02:05:48;;;;;;;6.45;3.63;;;11.20;73.50;;;;;;5012349;28;20123;-80
2021/05/31 02:08:32;;;;;;;4.95;3.05;;;11.10;74.60;;;;;;5008621;28;20044;-83
2021/05/31 02:11:44;;;;;;;7.57;3.50;;;11.00;75.00;;;;;;5014442;28;20418;-82
2021/05/31 02:14:51;;;;;;;7.70;3.70;;;11.00;75.00;;;;;;4995538;28;20092;-84
2021/05/31 02:17:55;;;;;;;7.10;3.50;;;10.90;75.30;;;;;;5000155;28;20114;-83
2021/05/31 02:20:41;;;;;;;7.93;3.35;;;10.90;76.20;;;;;;5007297;28;20047;-83
2021/05/31 02:23:26;;;;;;;7.65;3.42;;;10.80;75.90;;;;;;5016693;28;20580;-83
2021/05/31 02:26:14;;;;;;;;;;;10.80;76.50;;;;;;5034721;28;20032;-83
2021/05/31 02:28:59;;;;;;;6.82;3.53;;;10.80;77.10;;;;;;5021968;28;20277;-83
2021/05/31 02:31:43;;;;;;;6.82;4.20;;;10.70;76.50;;;;;;5034090;28;20433;-83
2021/05/31 02:34:30;;;;;;;6.38;3.55;;;10.80;76.80;;;;;;5025980;28;20044;-84
2021/05/31 02:37:14;;;;;;;6.97;3.25;;;10.70;77.50;;;;;;5028965;28;20049;-83
2021/05/31 02:39:58;;;;;;;7.47;3.67;;;10.70;77.80;;;;;;5031877;28;20163;-82
2021/05/31 02:42:48;;;;;;;6.68;3.85;;;10.60;78.80;;;;;;5024598;28;20057;-81
2021/05/31 02:45:33;;;;;;;8.85;3.97;;;10.60;78.90;;;;;;5032541;28;20082;-83
2021/05/31 02:48:17;;;;;;;6.38;3.38;;;10.60;78.90;;;;;;5024647;28;20032;-84
2021/05/31 02:51:02;;;;;;;5.47;3.90;;;10.60;79.20;;;;;;5012439;28;20056;-83
2021/05/31 02:53:46;;;;;;;9.18;3.90;;;10.50;79.60;;;;;;5012612;28;20112;-82
2021/05/31 02:56:30;;;;;;;7.35;3.70;;;10.60;80.20;;;;;;5020110;28;20519;-83
2021/05/31 02:59:14;;;;;;;5.32;3.70;;;10.60;80.20;;;;;;5012198;28;20072;-80
2021/05/31 03:01:58;;;;;;;6.65;3.47;;;10.50;80.50;;;;;;5010749;28;20556;-79
2021/05/31 03:04:43;;;;;;;6.05;4.20;;;10.50;80.40;;;;;;4993856;28;20042;-81
2021/05/31 03:07:27;;;;;;;6.25;3.63;;;10.50;80.60;;;;;;5012211;28;20041;-82
2021/05/31 03:10:12;;;;;;;7.75;4.25;;;10.50;80.60;;;;;;5013311;28;20121;-82
2021/05/31 03:12:59;;;;;;;6.15;3.55;;;10.50;81.70;;;;;;5020047;28;20449;-81
2021/05/31 03:15:43;;;;;;;7.55;3.10;;;10.50;81.90;;;;;;5013676;28;20176;-82
2021/05/31 03:18:27;;;;;;;8.43;3.65;;;10.50;81.90;;;;;;5006446;28;20037;-79
2021/05/31 03:21:11;;;;;;;6.63;3.28;;;10.50;81.80;;;;;;5007184;28;20527;-85
2021/05/31 03:23:56;;;;;;;8.15;3.55;;;10.50;82.30;;;;;;5017309;28;20079;-83
2021/05/31 03:26:40;;;;;;;7.90;3.70;;;10.60;81.70;;;;;;5022936;28;20389;-85
2021/05/31 03:29:24;;;;;;;5.72;3.75;;;10.50;82.10;;;;;;5002735;28;20092;-85
2021/05/31 03:32:08;;;;;;;6.60;3.60;;;10.60;82.50;;;;;;5015322;28;20081;-86
2021/05/31 03:34:52;;;;;;;6.47;3.65;;;10.60;82.70;;;;;;5024920;28;20036;-84
2021/05/31 03:37:37;;;;;;;6.85;3.55;;;10.60;82.40;;;;;;4996084;28;20057;-86
2021/05/31 03:40:22;;;;;;;6.68;3.70;;;10.60;82.80;;;;;;5021058;28;20036;-83
2021/05/31 03:43:06;;;;;;;7.53;3.75;;;10.60;82.70;;;;;;5013297;28;20497;-85
2021/05/31 03:45:50;;;;;;;8.60;3.65;;;10.60;83.00;;;;;;5019069;28;20586;-84
2021/05/31 03:48:34;;;;;;;7.07;3.92;;;10.60;82.80;;;;;;5012084;28;20041;-85
2021/05/31 03:51:19;;;;;;;7.72;3.92;;;10.60;82.90;;;;;;5015078;28;20088;-85
2021/05/31 03:54:03;;;;;;;6.68;3.60;;;10.60;83.10;;;;;;5011872;28;20044;-84
2021/05/31 03:56:48;;;;;;;5.25;3.20;;;10.70;83.70;;;;;;5014072;28;20243;-84
2021/05/31 03:59:33;;;;;;;6.53;3.40;;;10.70;83.40;;;;;;5001828;28;20634;-78
2021/05/31 04:02:17;;;;;;;7.15;3.90;;;10.70;83.60;;;;;;5011255;28;20103;-79
2021/05/31 04:05:02;;;;;;;6.63;3.80;;;10.70;83.70;;;;;;5016571;28;20048;-78
2021/05/31 04:13:52;;;;;;;5.63;3.58;;;10.80;83.70;;;;;;5021503;28;20207;-79
2021/05/31 04:16:39;;;;;;;7.80;4.13;;;10.80;84.00;;;;;;5031819;28;20095;-78
2021/05/31 04:19:25;;;;;;;6.30;3.60;;;10.80;84.00;;;;;;5006161;28;20037;-78
2021/05/31 04:22:10;;;;;;;8.32;3.40;;;10.80;83.80;;;;;;5010755;28;20096;-79
2021/05/31 04:24:54;;;;;;;6.57;3.67;;;10.80;83.90;;;;;;5016108;28;20116;-79
2021/05/31 04:27:38;;;;;;;5.55;3.47;;;10.80;84.10;;;;;;5010362;28;20041;-80
2021/05/31 04:30:22;;;;;;;7.53;3.92;;;10.90;84.00;;;;;;5030281;28;20175;-79
2021/05/31 04:33:06;;;;;;;8.73;3.83;;;10.90;84.00;;;;;;5019809;28;20040;-80
2021/05/31 04:35:50;;;;;;;4.85;3.45;;;10.90;84.00;;;;;;5011059;28;20521;-79
2021/05/31 04:38:34;;;;;;;10.05;3.80;;;10.90;84.10;;;;;;5016317;28;20047;-80
2021/05/31 04:41:18;;;;;;;7.18;3.70;;;10.90;84.50;;;;;;5031011;28;20389;-80
2021/05/31 04:44:03;;;;;;;8.13;3.50;;;11.00;84.30;;;;;;5013023;28;20505;-79
2021/05/31 04:46:47;;;;;;;6.32;3.70;;;11.10;84.40;;;;;;5019135;28;20037;-79
2021/05/31 04:49:32;;;;;;;7.38;3.30;;;11.10;84.30;;;;;;5027847;28;20398;-80
2021/05/31 04:52:16;;;;;;;5.88;3.72;;;11.10;84.10;;;;;;5031542;28;20033;-79
2021/05/31 04:55:01;;;;;;;7.97;3.97;;;11.20;84.30;;;;;;5018878;28;20506;-78
2021/05/31 04:57:46;;;;;;;5.57;3.80;;;11.20;84.20;;;;;;5004707;28;20501;-78
2021/05/31 05:00:30;;;;;;;7.65;4.30;;;11.30;84.10;;;;;;5010572;28;20077;-79
2021/05/31 05:03:14;;;;;;;7.15;3.97;;;11.30;84.20;;;;;;5008372;28;20061;-78
2021/05/31 05:05:58;;;;;;;11.32;4.22;;;11.30;84.30;;;;;;5016832;28;20117;-78
2021/05/31 05:08:42;;;;;;;8.80;4.10;;;11.40;84.10;;;;;;5010711;28;20079;-79
2021/05/31 05:11:26;;;;;;;6.65;4.00;;;11.50;84.20;;;;;;5049714;28;20044;-79
2021/05/31 05:14:10;;;;;;;8.98;4.82;;;11.60;83.90;;;;;;5010105;28;20099;-80
2021/05/31 05:16:54;;;;;;;7.30;3.83;;;11.60;84.00;;;;;;5015939;28;20188;-78
2021/05/31 05:19:38;;;;;;;13.90;4.72;;;11.70;84.00;;;;;;5032178;28;20716;-83
2021/05/31 05:22:22;;;;;;;8.18;4.15;;;11.70;84.00;;;;;;5029607;28;20036;-81
2021/05/31 05:25:07;;;;;;;8.25;4.30;;;11.80;83.70;;;;;;5035727;28;20500;-80
2021/05/31 05:27:52;;;;;;;10.65;4.53;;;11.80;83.70;;;;;;5029741;28;20516;-83
2021/05/31 05:30:36;;;;;;;7.57;4.15;;;11.90;83.60;;;;;;5034699;28;20389;-80
2021/05/31 05:33:20;;;;;;;7.53;5.10;;;12.00;83.50;;;;;;5022504;28;20092;-83
2021/05/31 05:36:18;;;;;;;10.20;4.70;;;12.00;83.50;;;;;;5013265;28;20096;-81
2021/05/31 05:39:18;;;;;;;7.38;4.10;;;12.10;83.20;;;;;;5016948;28;20041;-79
2021/05/31 05:42:25;;;;;;;10.70;4.72;;;12.10;83.10;;;;;;5028567;28;20091;-81
2021/05/31 05:48:13;;;;;;;15.05;4.60;;;12.20;83.00;;;;;;5006873;28;20068;-81
2021/05/31 05:51:06;;;;;;;8.77;3.95;;;12.30;82.90;;;;;;5016188;28;20029;-85
2021/05/31 05:53:51;;;;;;;9.25;4.00;;;12.40;82.80;;;;;;5014454;28;20561;-82
2021/05/31 05:56:35;;;;;;;6.40;3.88;;;12.50;82.70;;;;;;5015599;28;20065;-82
2021/05/31 05:59:19;;;;;;;7.55;4.00;;;12.50;82.50;;;;;;5016537;28;20044;-85
2021/05/31 06:02:05;;;;;;;8.00;4.18;;;12.60;82.30;;;;;;5018387;28;20037;-86
2021/05/31 06:04:49;;;;;;;8.07;4.10;;;12.70;82.20;;;;;;4997022;28;20091;-87
2021/05/31 06:07:33;;;;;;;9.38;4.30;;;12.80;82.10;;;;;;5003069;28;20037;-85
2021/05/31 06:10:18;;;;;;;5.38;3.63;;;12.90;81.70;;;;;;5004887;28;20113;-80
2021/05/31 06:13:02;;;;;;;7.40;4.60;;;13.00;81.50;;;;;;5022910;28;20041;-79
2021/05/31 06:15:46;;;;;;;7.72;4.40;;;12.90;81.30;;;;;;5020862;28;20128;-79
2021/05/31 06:18:30;;;;;;;6.38;4.13;;;13.00;81.00;;;;;;5014946;28;20386;-76
2021/05/31 06:21:14;;;;;;;5.30;3.72;;;13.10;80.90;;;;;;5009711;28;20508;-78
2021/05/31 06:23:59;;;;;;;6.03;3.90;;;13.10;80.70;;;;;;5003655;28;20045;-77
2021/05/31 06:26:24;;;;;;;7.18;3.90;;;13.20;80.90;;;;;;5009710;28;20026;-84
2021/05/31 06:28:50;;;;;;;5.93;3.83;;;13.30;81.00;;;;;;5011184;28;20037;-75
2021/05/31 06:31:15;;;;;;;10.07;4.13;;;13.40;80.80;;;;;;5009302;28;20493;-82
2021/05/31 06:33:41;;;;;;;10.98;4.18;;;13.40;80.60;;;;;;5007686;28;20374;-79
2021/05/31 06:36:09;;;;;;;7.75;4.38;;;13.50;80.60;;;;;;5007544;28;20090;-78
2021/05/31 06:38:34;;;;;;;7.72;4.20;;;13.60;80.40;;;;;;5011995;28;20030;-78
2021/05/31 06:41:02;;;;;;;7.43;4.35;;;13.70;80.20;;;;;;5001485;28;20659;-81
2021/05/31 06:43:47;;;;;;;8.23;3.58;;;13.70;79.70;;;;;;5003408;28;20037;-78
2021/05/31 06:46:12;;;;;;;9.27;4.10;;;13.80;79.30;;;;;;5013725;28;20026;-73
2021/05/31 06:48:38;;;;;;;11.88;4.50;;;13.80;79.00;;;;;;5006610;28;20034;-79
2021/05/31 06:51:04;;;;;;;5.80;3.92;;;13.90;78.90;;;;;;5004078;28;20026;-77
2021/05/31 06:53:30;;;;;;;6.78;3.83;;;14.00;78.80;;;;;;5009317;28;20030;-78
2021/05/31 06:55:55;;;;;;;7.93;4.00;;;14.10;78.90;;;;;;5010975;28;20041;-78
2021/05/31 06:58:21;;;;;;;7.30;4.18;;;14.10;78.50;;;;;;5010606;28;20026;-77
2021/05/31 07:00:47;;;;;;;6.45;4.38;;;14.20;78.30;;;;;;5004980;28;20399;-77
2021/05/31 07:03:13;;;;;;;8.27;4.57;;;14.20;78.00;;;;;;5011545;28;20499;-78
2021/05/31 07:05:38;;;;;;;9.60;4.55;;;14.20;77.80;;;;;;5006889;28;20040;-77
2021/05/31 07:08:04;;;;;;;7.60;4.30;;;14.30;78.10;;;;;;5005811;28;20419;-77
2021/05/31 07:10:31;;;;;;;8.23;4.03;;;14.40;77.90;;;;;;5012733;28;20049;-77
2021/05/31 07:12:57;;;;;;;8.70;4.63;;;14.50;77.80;;;;;;5009969;28;20033;-76
2021/05/31 07:15:24;;;;;;;5.53;3.92;;;14.60;77.40;;;;;;5005167;28;20049;-76
2021/05/31 07:17:50;;;;;;;6.55;3.90;;;14.60;76.90;;;;;;5014326;28;20022;-77
2021/05/31 07:20:19;;;;;;;7.35;4.35;;;14.70;77.10;;;;;;5020427;28;20044;-77
2021/05/31 07:22:46;;;;;;;8.73;4.18;;;14.80;76.90;;;;;;5003832;28;20022;-76
2021/05/31 07:25:16;;;;;;;5.20;3.80;;;14.80;76.00;;;;;;5008397;28;20029;-76
2021/05/31 07:27:42;;;;;;;7.97;4.00;;;14.90;75.60;;;;;;5012320;28;20088;-77
2021/05/31 07:30:10;;;;;;;10.32;4.18;;;14.90;75.50;;;;;;5010584;28;20049;-70
2021/05/31 07:32:36;;;;;;;6.22;4.30;;;15.00;75.20;;;;;;5010430;28;20410;-72
2021/05/31 07:35:04;;;;;;;6.82;3.70;;;15.00;74.70;;;;;;5011685;28;20072;-80
2021/05/31 07:37:29;;;;;;;6.82;3.92;;;15.20;74.60;;;;;;5004853;28;20035;-72
2021/05/31 07:39:55;;;;;;;6.85;3.80;;;15.20;74.80;;;;;;5011082;28;20073;-79
2021/05/31 07:42:20;;;;;;;9.60;4.45;;;15.30;74.40;;;;;;5009362;28;20065;-77
2021/05/31 07:44:46;;;;;;;8.23;4.45;;;15.40;73.90;;;;;;5010145;28;20065;-78
2021/05/31 07:47:11;;;;;;;6.68;4.22;;;15.50;73.70;;;;;;5006843;28;20556;-72
2021/05/31 07:49:37;;;;;;;7.63;3.92;;;15.60;73.60;;;;;;5002943;28;20037;-78
2021/05/31 07:52:19;;;;;;;7.00;3.65;;;15.70;73.40;;;;;;5003035;28;20033;-75
2021/05/31 07:54:45;;;;;;;8.98;4.03;;;15.80;73.50;;;;;;5003987;28;20482;-75
2021/05/31 07:57:10;;;;;;;8.90;4.13;;;15.90;72.00;;;;;;5003706;28;20425;-80
2021/05/31 07:59:36;;;;;;;7.68;4.63;;;15.90;71.70;;;;;;5003477;28;20071;-78
2021/05/31 08:02:01;;;;;;;7.43;3.88;;;16.00;70.70;;;;;;5006819;28;20057;-78
2021/05/31 08:04:27;;;;;;;8.73;4.68;;;16.00;71.10;;;;;;5024911;28;20263;-78
2021/05/31 08:07:11;;;;;;;6.10;3.97;;;16.10;71.10;;;;;;5003708;28;20304;-78
2021/05/31 08:09:56;;;;;;;7.88;4.53;;;16.20;71.30;;;;;;5010356;28;20033;-78
2021/05/31 08:12:40;;;;;;;7.55;4.43;;;16.30;71.20;;;;;;5007417;28;20108;-79
2021/05/31 08:15:24;;;;;;;7.85;4.10;;;16.40;70.90;;;;;;5011708;28;20048;-79
2021/05/31 08:18:10;;;;;;;6.40;4.38;;;16.60;70.70;;;;;;5010243;28;20037;-78
2021/05/31 08:20:54;;;;;;;7.43;4.20;;;16.60;69.60;;;;;;4996197;28;20096;-78
2021/05/31 08:23:38;;;;;;;6.23;4.33;;;16.60;68.10;;;;;;4992446;28;20036;-78
2021/05/31 08:26:22;;;;;;;10.05;4.18;;;16.70;69.00;;;;;;5010969;28;20393;-77
2021/05/31 08:29:07;;;;;;;7.32;4.13;;;16.80;68.40;;;;;;5005954;28;20081;-79
2021/05/31 08:31:51;;;;;;;5.63;3.55;;;16.80;67.40;;;;;;5002819;28;20041;-77
2021/05/31 08:34:35;;;;;;;5.95;3.33;;;16.90;67.10;;;;;;5011504;28;20489;-78
2021/05/31 08:37:19;;;;;;;5.35;3.35;;;17.00;65.70;;;;;;5009392;28;20129;-78
2021/05/31 08:40:06;;;;;;;11.63;3.67;;;17.00;65.60;;;;;;5010447;28;20037;-78
2021/05/31 08:42:50;;;;;;;6.20;3.38;;;17.20;65.80;;;;;;5011694;28;20306;-76
2021/05/31 08:45:37;;;;;;;;;;;17.30;65.60;;;;;;5012469;28;20536;-78
2021/05/31 08:48:23;;;;;;;9.20;3.65;;;17.30;66.10;;;;;;5010812;28;20006;-78
2021/05/31 08:51:07;;;;;;;7.13;3.33;;;17.40;64.70;;;;;;5005650;28;20099;-77
2021/05/31 08:53:51;;;;;;;10.00;3.37;;;17.50;64.50;;;;;;5008791;28;20044;-77
2021/05/31 08:56:35;;;;;;;5.13;3.40;;;17.60;64.70;;;;;;5008744;28;20057;-78
2021/05/31 08:59:19;;;;;;;7.72;4.05;;;17.70;63.50;;;;;;5009358;28;20114;-77
2021/05/31 09:02:03;;;;;;;7.88;3.78;;;17.80;63.10;;;;;;5008410;28;20080;-77
2021/05/31 09:04:51;;;;;;;6.97;4.30;;;17.90;62.10;;;;;;5010366;28;20145;-76
2021/05/31 09:07:35;;;;;;;5.18;3.28;;;17.90;61.30;;;;;;5011572;28;20041;-77
2021/05/31 09:10:20;;;;;;;6.25;3.35;;;18.00;61.00;;;;;;5009647;28;20117;-76
2021/05/31 09:13:04;;;;;;;8.20;3.63;;;18.00;60.30;;;;;;5010894;28;20184;-76
2021/05/31 09:16:08;;;;;;;4.63;2.95;;;18.10;59.90;;;;;;5010947;28;20079;-77
2021/05/31 09:19:02;;;;;;;5.28;3.15;;;18.10;58.70;;;;;;5007551;28;20029;-77
2021/05/31 09:21:46;;;;;;;4.57;3.17;;;18.20;58.80;;;;;;5005304;28;20037;-77
2021/05/31 09:24:30;;;;;;;8.30;3.88;;;18.20;58.60;;;;;;5007143;28;20512;-77
2021/05/31 09:27:17;;;;;;;6.70;3.38;;;18.30;57.70;;;;;;5004608;28;20438;-80
2021/05/31 09:30:07;;;;;;;4.53;2.80;;;18.30;57.10;;;;;;5000103;28;20505;-77
2021/05/31 09:32:51;;;;;;;5.63;2.55;;;18.50;57.30;;;;;;5009471;28;20040;-77
2021/05/31 09:35:38;;;;;;;8.88;3.25;;;18.50;55.60;;;;;;5010800;28;20137;-77
2021/05/31 09:38:23;;;;;;;8.70;3.10;;;18.50;55.60;;;;;;5008607;28;20029;-77
2021/05/31 09:41:07;;;;;;;4.50;3.10;;;18.60;56.20;;;;;;5011999;28;20513;-76
2021/05/31 09:43:56;;;;;;;6.82;2.58;;;18.70;54.40;;;;;;5012733;28;20088;-75
2021/05/31 09:46:47;;;;;;;5.57;2.88;;;18.70;53.80;;;;;;5027191;28;20056;-76
2021/05/31 09:49:31;;;;;;;5.05;2.78;;;18.70;53.60;;;;;;5016861;28;20120;-78
2021/05/31 09:52:17;;;;;;;6.00;2.75;;;18.70;53.40;;;;;;5013125;28;20177;-77
2021/05/31 09:55:09;;;;;;;3.97;2.58;;;18.80;53.50;;;;;;5011133;28;20037;-76
2021/05/31 09:57:54;;;;;;;3.22;2.30;;;18.90;51.80;;;;;;5012833;28;20064;-79
2021/05/31 10:00:39;;;;;;;3.85;2.00;;;18.90;51.00;;;;;;5012133;28;20434;-78
2021/05/31 10:03:39;;;;;;;3.92;1.85;;;18.90;48.80;;;;;;5011350;28;20056;-76
2021/05/31 10:06:41;;;;;;;3.92;1.92;;;18.90;47.40;;;;;;5012610;28;20508;-76
2021/05/31 10:09:07;;;;;;;3.63;1.88;;;18.90;46.90;;;;;;5002290;28;20037;-76
2021/05/31 10:11:53;;;;;;;2.53;1.70;;;19.00;47.00;;;;;;5010685;28;20450;-78
2021/05/31 10:14:39;;;;;;;5.90;1.80;;;19.10;46.30;;;;;;5011081;28;20135;-80
2021/05/31 10:17:24;;;;;;;3.67;2.10;;;19.20;46.70;;;;;;5014191;28;20080;-79
2021/05/31 10:20:09;;;;;;;;;;;19.20;46.90;;;;;;5013100;28;20045;-80
2021/05/31 10:22:53;;;;;;;4.30;2.00;;;19.30;48.60;;;;;;5011822;28;19979;-79
2021/05/31 10:25:43;;;;;;;3.45;1.85;;;19.30;47.80;;;;;;5012849;28;20111;-80
2021/05/31 10:28:36;;;;;;;5.93;2.20;;;19.40;46.50;;;;;;5010215;28;20048;-78
2021/05/31 10:31:20;;;;;;;6.28;2.10;;;19.50;45.80;;;;;;5012217;28;20033;-79
2021/05/31 10:34:04;;;;;;;4.50;2.75;;;19.50;45.80;;;;;;5012414;28;20123;-79
2021/05/31 10:36:55;;;;;;;2.75;1.92;;;19.50;45.70;;;;;;5012274;28;20454;-79
2021/05/31 10:39:40;;;;;;;3.25;2.25;;;19.50;44.80;;;;;;5013609;28;20077;-78
2021/05/31 10:42:25;;;;;;;4.47;2.10;;;19.50;46.30;;;;;;5012488;28;20124;-79
2021/05/31 10:45:24;;;;;;;;;;;19.50;44.80;;;;;;5011946;28;20418;-78
2021/05/31 10:48:19;;;;;;;3.88;2.33;;;19.60;43.50;;;;;;5002256;28;19916;-79
2021/05/31 10:51:16;;;;;;;4.68;1.60;;;19.50;43.40;;;;;;5010450;28;20416;-78
2021/05/31 10:54:15;;;;;;;2.97;1.98;;;19.60;44.20;;;;;;5007654;28;20060;-77
2021/05/31 10:57:10;;;;;;;3.83;2.28;;;19.70;43.60;;;;;;5009640;28;20052;-76
2021/05/31 10:59:54;;;;;;;7.50;2.20;;;19.80;44.50;;;;;;5011814;28;20033;-77
2021/05/31 11:02:38;;;;;;;3.67;2.08;;;19.70;44.20;;;;;;5008223;28;20123;-77
2021/05/31 11:05:32;;;;;;;3.55;1.75;;;19.70;44.20;;;;;;5003397;28;20036;-77
2021/05/31 11:08:30;;;;;;;6.95;2.17;;;19.70;43.30;;;;;;5009260;28;20532;-77
2021/05/31 11:11:41;;;;;;;3.80;2.30;;;19.70;43.70;;;;;;5010689;28;20049;-79
2021/05/31 11:14:35;;;;;;;3.42;1.80;;;19.80;43.80;;;;;;5000162;28;20088;-76
2021/05/31 11:17:23;;;;;;;5.50;2.28;;;19.80;43.40;;;;;;5004365;28;20037;-77
2021/05/31 11:20:12;;;;;;;3.50;2.17;;;19.80;43.50;;;;;;5011812;28;20121;-78
2021/05/31 11:22:58;;;;;;;2.90;1.83;;;19.90;43.80;;;;;;5011494;28;20096;-78
2021/05/31 11:25:47;;;;;;;4.32;2.20;;;20.00;44.20;;;;;;5013235;28;20493;-75
2021/05/31 11:28:31;;;;;;;4.80;2.38;;;20.10;43.90;;;;;;5010876;28;20547;-75
2021/05/31 11:31:15;;;;;;;3.10;1.90;;;20.20;44.80;;;;;;5008063;28;20087;-76
2021/05/31 11:34:00;;;;;;;3.25;1.80;;;20.30;44.70;;;;;;5006065;28;20044;-77
2021/05/31 11:36:45;;;;;;;3.20;2.00;;;20.30;44.30;;;;;;5011151;28;20073;-81
2021/05/31 11:39:32;;;;;;;5.25;2.20;;;20.40;43.50;;;;;;5008523;28;20029;-77
2021/05/31 11:42:16;;;;;;;5.60;2.08;;;20.30;43.50;;;;;;5006473;28;20088;-79
2021/05/31 11:45:02;;;;;;;7.83;2.00;;;20.40;43.80;;;;;;5020590;28;20033;-80
2021/05/31 11:47:53;;;;;;;7.57;2.38;;;20.40;43.20;;;;;;5009674;28;20104;-82
2021/05/31 11:50:42;;;;;;;4.60;2.33;;;20.40;43.00;;;;;;5012025;28;20072;-82
2021/05/31 11:53:26;;;;;;;5.70;2.00;;;20.40;42.90;;;;;;5011600;28;20056;-82
2021/05/31 11:56:11;;;;;;;3.63;2.20;;;20.50;44.10;;;;;;5002966;28;20449;-82
2021/05/31 11:58:55;;;;;;;3.72;2.03;;;20.50;43.50;;;;;;5010685;28;20037;-82
2021/05/31 12:01:39;;;;;;;3.87;2.10;;;20.40;43.20;;;;;;5012038;28;20088;-82
2021/05/31 12:04:27;;;;;;;3.20;2.10;;;20.40;43.30;;;;;;5010158;28;20419;-82
2021/05/31 12:07:14;;;;;;;3.38;1.80;;;20.50;43.50;;;;;;5003482;28;20289;-80
2021/05/31 12:09:46;;;;;;;2.78;1.80;;;20.50;43.40;;;;;;5004451;28;20037;-80
2021/05/31 12:12:30;;;;;;;;;;;20.60;43.40;;;;;;5009732;28;20048;-82
2021/05/31 12:15:17;;;;;;;6.15;1.67;;;20.70;44.00;;;;;;5010133;28;19933;-82
2021/05/31 12:18:15;;;;;;;5.32;1.90;;;20.70;41.20;;;;;;5014941;28;20048;-81
2021/05/31 12:21:02;;;;;;;3.05;1.77;;;20.70;40.90;;;;;;5009237;28;20036;-80
2021/05/31 12:23:51;;;;;;;3.88;1.60;;;20.80;41.50;;;;;;4996520;28;20505;-80
2021/05/31 12:26:38;;;;;;;1.95;1.45;;;20.90;40.50;;;;;;5003114;28;20096;-80
2021/05/31 12:29:46;;;;;;;3.65;2.00;;;21.00;38.60;;;;;;4992826;28;20510;-80
2021/05/31 12:32:30;;;;;;;2.90;1.90;;;21.00;39.70;;;;;;5004792;28;20379;-82
2021/05/31 12:35:15;;;;;;;5.90;2.65;;;21.00;39.60;;;;;;5011364;28;20104;-80
2021/05/31 12:37:59;;;;;;;2.60;1.80;;;21.10;39.30;;;;;;5009474;28;20052;-78
2021/05/31 12:40:46;;;;;;;2.83;1.75;;;21.20;39.30;;;;;;5009560;28;20034;-79
2021/05/31 12:43:35;;;;;;;4.95;1.75;;;21.30;38.10;;;;;;5009328;28;20453;-79
2021/05/31 12:46:20;;;;;;;2.28;1.52;;;21.40;38.10;;;;;;5026632;28;20121;-80
2021/05/31 12:49:04;;;;;;;4.05;1.83;;;21.50;38.00;;;;;;5007987;28;20092;-79
2021/05/31 12:51:54;;;;;;;1.90;1.27;;;21.70;38.70;;;;;;5010891;28;20029;-80
2021/05/31 12:54:38;;;;;;;2.75;1.42;;;21.80;37.30;;;;;;4993478;28;20470;-81
2021/05/31 12:57:23;;;;;;;;;;;21.80;36.30;;;;;;5009475;28;20073;-80
2021/05/31 13:00:12;;;;;;;4.47;1.85;;;21.90;37.50;;;;;;5025451;28;19916;-80
2021/05/31 13:02:59;;;;;;;2.35;1.63;;;21.90;37.60;;;;;;4999223;28;20097;-80
2021/05/31 13:05:47;;;;;;;3.95;1.80;;;22.10;37.10;;;;;;4996343;28;20048;-82
2021/05/31 13:08:41;;;;;;;8.55;2.50;;;22.20;37.10;;;;;;5001938;28;20048;-80
2021/05/31 13:11:25;;;;;;;2.47;1.60;;;22.40;37.20;;;;;;4997548;28;20076;-78
2021/05/31 13:14:24;;;;;;;2.10;1.60;;;22.50;37.90;;;;;;5006199;28;20398;-80
2021/05/31 13:17:09;;;;;;;3.28;1.80;;;22.70;37.10;;;;;;5005671;28;20141;-80
2021/05/31 13:20:09;;;;;;;3.60;1.70;;;22.70;36.90;;;;;;5011247;28;20091;-79
2021/05/31 13:22:58;;;;;;;3.45;1.90;;;22.70;37.70;;;;;;5007824;28;20391;-80
2021/05/31 13:25:45;;;;;;;2.42;1.73;;;22.80;37.60;;;;;;4994998;28;20102;-83
2021/05/31 13:28:38;;;;;;;2.58;1.85;;;22.90;37.80;;;;;;5007509;28;20041;-82
2021/05/31 13:31:22;;;;;;;4.40;2.47;;;22.90;37.60;;;;;;5005805;28;20033;-82
2021/05/31 13:34:08;;;;;;;4.47;2.10;;;23.00;38.50;;;;;;5007556;28;20053;-83
2021/05/31 13:36:52;;;;;;;2.70;1.70;;;23.10;38.70;;;;;;5005493;28;20073;-83
2021/05/31 13:39:37;;;;;;;6.53;1.92;;;23.30;38.70;;;;;;5001339;28;20040;-82
2021/05/31 13:42:22;;;;;;;4.65;2.15;;;23.40;38.60;;;;;;5012939;28;20045;-83
2021/05/31 13:45:08;;;;;;;5.25;1.98;;;23.40;37.60;;;;;;5015191;28;20041;-84
2021/05/31 13:47:52;;;;;;;5.57;2.08;;;23.40;37.80;;;;;;5006388;28;20044;-82
2021/05/31 13:50:37;;;;;;;3.25;1.83;;;23.50;38.20;;;;;;4994509;28;20037;-84
2021/05/31 13:53:23;;;;;;;2.92;1.60;;;23.50;37.80;;;;;;5012966;28;20037;-81
2021/05/31 13:56:07;;;;;;;1.88;1.50;;;23.50;37.20;;;;;;5013082;28;20049;-81
2021/05/31 13:58:51;;;;;;;5.68;1.80;;;23.60;36.70;;;;;;5001019;28;20114;-80
2021/05/31 14:01:35;;;;;;;2.67;1.90;;;23.60;36.30;;;;;;5012012;28;20125;-81
2021/05/31 14:04:19;;;;;;;4.68;1.75;;;23.60;35.80;;;;;;5012211;28;20057;-82
2021/05/31 14:07:04;;;;;;;2.63;1.63;;;23.70;35.90;;;;;;5006643;28;20033;-81
2021/05/31 14:09:48;;;;;;;2.40;1.60;;;23.70;35.20;;;;;;5003565;28;20498;-83
2021/05/31 14:12:32;;;;;;;3.83;1.75;;;23.70;34.40;;;;;;5004788;28;20096;-83
2021/05/31 14:15:18;;;;;;;2.30;1.70;;;23.70;34.40;;;;;;5021959;28;20044;-84
2021/05/31 14:18:03;;;;;;;2.60;1.58;;;23.70;34.00;;;;;;5017885;28;20104;-82
2021/05/31 14:20:46;;;;;;;2.53;1.40;;;23.70;34.20;;;;;;5024593;28;20084;-81
2021/05/31 14:23:30;;;;;;;3.10;1.40;;;23.70;33.90;;;;;;5023260;28;20053;-83